Time;durP1;ratioP1;P1;durP2;ratioP2;P2;SDS_P1;SDS_P2;PMS_P1;PMS_P2;Temp;Humidity;BMP_temperature;BMP_pressure;BME280_temperature;BME280_humidity;BME280_pressure;Samples;Min_cycle;Max_cycle;Signal;HPM_P1;HPM_P2
2023/05/28 00:00:17;;;;;;;6.25;3.35;;;26.20;56.50;;;;;;5075045;28;20794;-75
2023/05/28 00:02:45;;;;;;;6.70;3.00;;;26.20;56.50;;;;;;5070905;28;20067;-75
2023/05/28 00:05:11;;;;;;;6.85;3.58;;;26.20;56.50;;;;;;5071112;28;20031;-76
2023/05/28 00:07:39;;;;;;;5.53;3.05;;;26.20;56.60;;;;;;5071180;28;20037;-76
2023/05/28 00:10:05;;;;;;;6.38;3.88;;;26.20;56.80;;;;;;5071065;28;20033;-75
2023/05/28 00:12:31;;;;;;;9.27;3.28;;;26.10;57.00;;;;;;5069733;28;20040;-76
2023/05/28 00:14:57;;;;;;;4.20;2.78;;;26.20;57.00;;;;;;5071103;28;20043;-75
2023/05/28 00:17:23;;;;;;;5.07;2.72;;;26.10;57.00;;;;;;5070668;28;20044;-75
2023/05/28 00:19:49;;;;;;;5.05;3.08;;;26.00;57.00;;;;;;5071005;28;20037;-75
2023/05/28 00:22:15;;;;;;;5.80;2.80;;;26.10;57.10;;;;;;5070681;28;20060;-75
2023/05/28 00:24:41;;;;;;;6.82;3.33;;;26.10;57.00;;;;;;5073132;28;20035;-76
2023/05/28 00:27:07;;;;;;;5.63;3.20;;;26.10;56.90;;;;;;5074467;28;20048;-75
2023/05/28 00:29:33;;;;;;;4.43;2.70;;;26.20;56.90;;;;;;5074738;28;20036;-75
2023/05/28 00:31:59;;;;;;;7.88;3.22;;;26.10;56.80;;;;;;5074357;28;20475;-75
2023/05/28 00:34:26;;;;;;;6.53;3.05;;;26.20;56.70;;;;;;5074631;28;20575;-76
2023/05/28 00:36:53;;;;;;;4.05;3.22;;;26.20;56.70;;;;;;5072912;28;20143;-76
2023/05/28 00:39:20;;;;;;;5.72;3.20;;;26.20;56.70;;;;;;5072755;28;20109;-75
2023/05/28 00:41:46;;;;;;;5.78;2.88;;;26.10;56.80;;;;;;5072932;28;20086;-77
2023/05/28 00:44:13;;;;;;;5.93;3.40;;;26.20;56.80;;;;;;5074166;28;20044;-76
2023/05/28 00:46:45;;;;;;;5.05;3.35;;;26.20;56.80;;;;;;5056495;28;20083;-76
2023/05/28 00:49:12;;;;;;;6.93;3.28;;;26.10;57.00;;;;;;5074251;28;20037;-76
2023/05/28 00:51:39;;;;;;;8.98;2.78;;;26.10;57.00;;;;;;5074298;28;20036;-74
2023/05/28 00:54:05;;;;;;;5.72;2.60;;;26.10;57.00;;;;;;5091258;28;20127;-76
2023/05/28 00:56:32;;;;;;;8.65;3.17;;;26.00;57.10;;;;;;5092606;28;20093;-75
2023/05/28 00:59:02;;;;;;;6.95;3.28;;;26.10;57.00;;;;;;5094321;28;20036;-76
2023/05/28 01:01:29;;;;;;;6.82;3.38;;;26.00;56.90;;;;;;5094094;28;20545;-76
2023/05/28 01:03:55;;;;;;;8.40;3.25;;;25.90;56.60;;;;;;5094169;28;20475;-76
2023/05/28 01:06:22;;;;;;;7.63;2.80;;;26.00;57.10;;;;;;5093783;28;20031;-76
2023/05/28 01:08:51;;;;;;;3.78;2.85;;;26.10;57.10;;;;;;5094121;28;20036;-75
2023/05/28 01:11:19;;;;;;;4.28;2.63;;;25.90;56.80;;;;;;5092545;28;20039;-75
2023/05/28 01:13:46;;;;;;;4.80;2.80;;;26.00;57.30;;;;;;5094324;28;20114;-76
2023/05/28 01:16:13;;;;;;;7.28;3.17;;;26.00;57.40;;;;;;5092563;28;20136;-75
2023/05/28 01:18:41;;;;;;;8.30;3.53;;;26.00;57.40;;;;;;5094340;28;20032;-75
2023/05/28 01:21:09;;;;;;;6.85;3.13;;;25.90;56.90;;;;;;5092450;28;20064;-75
2023/05/28 01:23:47;;;;;;;6.65;2.97;;;26.00;57.30;;;;;;5070617;28;20113;-75
2023/05/28 01:26:16;;;;;;;8.60;3.03;;;26.00;57.50;;;;;;5071072;28;20735;-76
2023/05/28 01:28:46;;;;;;;4.20;2.78;;;25.90;57.10;;;;;;5054252;28;20049;-76
2023/05/28 01:31:16;;;;;;;6.03;3.08;;;26.00;57.50;;;;;;5070939;28;20408;-76
2023/05/28 01:33:43;;;;;;;6.55;3.38;;;25.80;57.20;;;;;;5054360;28;20059;-76
2023/05/28 01:36:23;;;;;;;6.90;3.20;;;25.90;57.10;;;;;;5070324;28;20139;-76
2023/05/28 01:38:52;;;;;;;5.88;3.38;;;25.90;57.10;;;;;;5054334;28;20155;-76
2023/05/28 01:41:20;;;;;;;7.22;3.30;;;25.90;57.00;;;;;;5037264;28;20075;-76
2023/05/28 01:43:46;;;;;;;5.78;3.15;;;25.90;57.10;;;;;;5054148;28;20078;-76
2023/05/28 01:46:13;;;;;;;6.28;3.15;;;25.90;57.00;;;;;;5054119;28;20040;-77
2023/05/28 01:48:39;;;;;;;9.18;3.25;;;25.80;57.10;;;;;;5037388;28;20040;-75
2023/05/28 01:51:06;;;;;;;5.63;2.88;;;25.90;57.10;;;;;;5070629;28;20586;-76
2023/05/28 01:53:32;;;;;;;5.53;3.47;;;25.90;57.00;;;;;;5071351;28;20048;-75
2023/05/28 01:56:01;;;;;;;3.85;3.00;;;25.80;57.20;;;;;;5090500;28;20055;-75
2023/05/28 01:58:27;;;;;;;7.53;3.22;;;25.80;57.20;;;;;;5090650;28;20059;-74
2023/05/28 02:01:05;;;;;;;6.05;3.03;;;25.80;57.20;;;;;;5090728;28;20068;-75
2023/05/28 02:03:32;;;;;;;6.60;3.03;;;25.80;57.30;;;;;;5089610;28;20120;-75
2023/05/28 02:05:58;;;;;;;9.77;2.97;;;25.70;57.40;;;;;;5073743;28;20126;-76
2023/05/28 02:08:24;;;;;;;4.45;2.60;;;25.70;57.60;;;;;;5090407;28;20048;-76
2023/05/28 02:10:50;;;;;;;5.38;2.53;;;25.70;57.70;;;;;;5090453;28;20115;-74
2023/05/28 02:13:16;;;;;;;6.43;2.80;;;25.70;57.60;;;;;;5073472;28;20051;-74
2023/05/28 02:15:44;;;;;;;6.38;3.33;;;25.70;57.50;;;;;;5073453;28;20125;-75
2023/05/28 02:18:10;;;;;;;7.32;2.90;;;25.70;57.40;;;;;;5090146;28;20114;-76
2023/05/28 02:20:36;;;;;;;9.43;2.75;;;25.70;57.40;;;;;;5073618;28;20124;-76
2023/05/28 02:23:02;;;;;;;4.93;2.83;;;25.70;57.50;;;;;;5089940;28;20051;-76
2023/05/28 02:25:28;;;;;;;3.35;2.65;;;25.70;57.40;;;;;;5074236;28;20495;-76
2023/05/28 02:27:54;;;;;;;4.90;2.92;;;25.70;57.40;;;;;;5072313;28;20025;-75
2023/05/28 02:30:20;;;;;;;5.78;2.70;;;25.70;57.40;;;;;;5070673;28;20033;-75
2023/05/28 02:32:47;;;;;;;4.32;2.67;;;25.70;57.50;;;;;;5071133;28;20089;-76
2023/05/28 02:35:16;;;;;;;7.07;2.95;;;25.60;57.50;;;;;;5087966;28;20214;-76
2023/05/28 02:37:43;;;;;;;4.60;2.60;;;25.70;57.50;;;;;;5071879;28;20028;-75
2023/05/28 02:40:10;;;;;;;5.82;2.72;;;25.70;57.50;;;;;;5087380;28;20134;-75
2023/05/28 02:42:36;;;;;;;10.00;3.00;;;25.70;57.50;;;;;;5087694;28;20081;-75
2023/05/28 02:45:04;;;;;;;3.85;2.95;;;25.70;57.50;;;;;;5071988;28;20033;-76
2023/05/28 02:47:31;;;;;;;5.72;2.53;;;25.60;57.50;;;;;;5086576;28;20055;-76
2023/05/28 02:49:57;;;;;;;4.93;3.22;;;25.60;57.50;;;;;;5053970;28;20466;-75
2023/05/28 02:52:24;;;;;;;3.63;2.40;;;25.60;57.50;;;;;;5087361;28;20039;-76
2023/05/28 02:54:50;;;;;;;3.70;2.65;;;25.60;57.50;;;;;;5071833;28;20021;-75
2023/05/28 02:57:16;;;;;;;7.00;3.05;;;25.60;57.50;;;;;;5087122;28;20502;-77
2023/05/28 02:59:42;;;;;;;7.57;2.72;;;25.50;57.50;;;;;;5087727;28;20038;-76
2023/05/28 03:02:08;;;;;;;4.60;2.60;;;25.60;57.50;;;;;;5095264;28;20024;-75
2023/05/28 03:04:35;;;;;;;9.48;2.95;;;25.50;57.60;;;;;;5089401;28;20408;-75
2023/05/28 03:07:02;;;;;;;4.90;2.83;;;25.50;57.70;;;;;;5072192;28;20143;-75
2023/05/28 03:09:28;;;;;;;4.85;2.30;;;25.40;57.70;;;;;;5055939;28;20777;-76
2023/05/28 03:11:54;;;;;;;7.80;3.10;;;25.40;57.60;;;;;;5072552;28;20101;-76
2023/05/28 03:14:21;;;;;;;8.50;2.90;;;25.50;57.50;;;;;;5072407;28;20032;-76
2023/05/28 03:16:47;;;;;;;4.82;2.83;;;25.60;57.60;;;;;;5072541;28;20056;-75
2023/05/28 03:19:21;;;;;;;7.72;3.50;;;25.50;57.60;;;;;;5072324;28;20044;-76
2023/05/28 03:21:47;;;;;;;8.95;2.95;;;25.50;57.50;;;;;;5072549;28;20566;-76
2023/05/28 03:24:14;;;;;;;7.72;2.78;;;25.50;57.60;;;;;;5072056;28;20147;-76
2023/05/28 03:26:51;;;;;;;7.38;2.70;;;25.50;57.60;;;;;;5072282;28;20044;-76
2023/05/28 03:29:22;;;;;;;3.63;2.80;;;25.50;57.60;;;;;;5072357;28;20131;-75
2023/05/28 03:31:59;;;;;;;7.97;3.10;;;25.40;57.60;;;;;;5072531;28;20078;-75
2023/05/28 03:34:25;;;;;;;9.05;3.10;;;25.40;57.60;;;;;;5072290;28;20089;-76
2023/05/28 03:36:52;;;;;;;8.40;2.92;;;25.50;57.60;;;;;;5072018;28;20476;-76
2023/05/28 03:39:18;;;;;;;4.63;2.72;;;25.50;57.60;;;;;;5072123;28;20499;-76
2023/05/28 03:41:46;;;;;;;9.25;2.53;;;25.50;57.50;;;;;;5060583;28;20381;-76
2023/05/28 03:44:13;;;;;;;6.88;2.88;;;25.40;57.50;;;;;;5090032;28;20063;-76
2023/05/28 03:46:40;;;;;;;11.13;3.08;;;25.40;57.60;;;;;;5090180;28;20032;-76
2023/05/28 03:49:07;;;;;;;6.53;2.97;;;25.40;57.60;;;;;;5074829;28;20087;-76
2023/05/28 03:51:34;;;;;;;7.82;3.05;;;25.40;57.60;;;;;;5068679;28;20171;-76
2023/05/28 03:54:00;;;;;;;5.05;3.00;;;25.50;57.50;;;;;;5068831;28;20397;-76
2023/05/28 03:56:27;;;;;;;7.53;2.72;;;25.40;57.40;;;;;;5068680;28;20032;-75
2023/05/28 03:58:53;;;;;;;3.78;2.40;;;25.40;57.40;;;;;;5070922;28;20177;-75
2023/05/28 04:01:20;;;;;;;4.85;2.10;;;25.50;57.30;;;;;;5072534;28;20135;-76
2023/05/28 04:03:46;;;;;;;6.10;2.90;;;25.40;57.00;;;;;;5098901;28;20499;-74
2023/05/28 04:06:12;;;;;;;3.05;1.83;;;25.60;56.80;;;;;;5095871;28;20039;-73
2023/05/28 04:08:38;;;;;;;3.75;2.05;;;25.60;56.60;;;;;;5113172;28;20047;-76
2023/05/28 04:11:04;;;;;;;2.80;1.98;;;25.70;56.40;;;;;;5113283;28;20509;-75
2023/05/28 04:13:30;;;;;;;3.67;2.55;;;25.80;56.30;;;;;;5096083;28;20039;-74
2023/05/28 04:15:57;;;;;;;4.07;2.33;;;25.80;56.10;;;;;;5095920;28;20551;-75
2023/05/28 04:18:23;;;;;;;5.88;2.35;;;25.90;55.70;;;;;;5071838;28;20037;-73
2023/05/28 04:20:49;;;;;;;4.63;2.47;;;26.10;57.40;;;;;;5088770;28;20393;-74
2023/05/28 04:23:15;;;;;;;7.97;2.75;;;26.40;58.70;;;;;;5071858;28;20052;-75
2023/05/28 04:25:42;;;;;;;6.47;2.63;;;26.60;59.00;;;;;;5055420;28;20124;-74
2023/05/28 04:28:08;;;;;;;7.65;2.80;;;26.50;55.80;;;;;;5072111;28;20036;-75
2023/05/28 04:30:34;;;;;;;6.55;2.60;;;26.50;54.40;;;;;;5072053;28;20051;-75
2023/05/28 04:33:00;;;;;;;3.17;2.60;;;26.50;53.70;;;;;;5071737;28;20106;-73
2023/05/28 04:35:26;;;;;;;5.70;2.63;;;26.50;53.10;;;;;;5056034;28;20123;-74
2023/05/28 04:37:53;;;;;;;6.72;2.90;;;26.50;52.70;;;;;;5068392;28;20219;-74
2023/05/28 04:40:21;;;;;;;4.53;2.70;;;26.40;52.30;;;;;;5034917;28;20120;-73
2023/05/28 04:42:47;;;;;;;7.40;2.90;;;26.40;52.00;;;;;;5068481;28;20472;-75
2023/05/28 04:45:13;;;;;;;5.97;2.53;;;26.40;51.80;;;;;;5068261;28;20477;-74
2023/05/28 04:47:43;;;;;;;3.60;2.72;;;26.30;51.60;;;;;;5068322;28;20032;-74
2023/05/28 04:50:09;;;;;;;6.95;2.97;;;26.30;51.00;;;;;;5051452;28;20072;-75
2023/05/28 04:52:35;;;;;;;6.35;2.85;;;26.30;50.80;;;;;;5051605;28;20083;-74
2023/05/28 04:55:06;;;;;;;3.80;2.80;;;26.40;50.60;;;;;;5042103;28;20062;-72
2023/05/28 04:57:32;;;;;;;9.60;2.88;;;26.20;50.30;;;;;;5092961;28;20060;-74
2023/05/28 05:00:00;;;;;;;9.00;3.22;;;26.30;49.50;;;;;;5092832;28;20097;-74
2023/05/28 05:02:26;;;;;;;7.03;2.65;;;26.30;46.40;;;;;;5092806;28;20044;-74
2023/05/28 05:04:52;;;;;;;5.88;2.17;;;26.30;43.30;;;;;;5092860;28;20496;-76
2023/05/28 05:07:22;;;;;;;3.03;2.50;;;26.20;42.50;;;;;;5092611;28;20028;-74
2023/05/28 05:09:48;;;;;;;3.53;2.53;;;26.10;44.10;;;;;;5072418;28;20111;-72
2023/05/28 05:12:14;;;;;;;2.92;1.73;;;26.00;44.50;;;;;;5092593;28;20047;-73
2023/05/28 05:14:41;;;;;;;2.00;1.27;;;26.10;44.60;;;;;;5092456;28;20069;-72
2023/05/28 05:17:08;;;;;;;5.35;2.78;;;26.10;45.30;;;;;;5092152;28;20087;-73
2023/05/28 05:19:35;;;;;;;3.45;1.90;;;26.10;45.10;;;;;;5092723;28;20046;-73
2023/05/28 05:22:02;;;;;;;2.33;1.42;;;26.10;45.50;;;;;;5075645;28;20043;-73
2023/05/28 05:24:28;;;;;;;7.68;2.17;;;26.10;45.70;;;;;;5075618;28;20421;-73
2023/05/28 05:26:55;;;;;;;3.90;1.90;;;26.20;47.10;;;;;;5075633;28;20391;-72
2023/05/28 05:29:21;;;;;;;3.72;2.00;;;26.20;47.00;;;;;;5075317;28;20039;-72
2023/05/28 05:31:49;;;;;;;7.05;2.80;;;26.20;46.40;;;;;;5092361;28;20453;-72
2023/05/28 05:34:15;;;;;;;3.65;2.83;;;26.20;47.40;;;;;;5092618;28;20028;-74
2023/05/28 05:37:00;;;;;;;3.88;3.30;;;26.20;47.80;;;;;;5092542;28;20032;-72
2023/05/28 05:39:26;;;;;;;9.90;5.03;;;26.20;48.30;;;;;;5093104;28;20059;-72
2023/05/28 05:42:18;;;;;;;7.78;4.60;;;26.30;47.20;;;;;;5091950;28;20119;-72
2023/05/28 05:44:48;;;;;;;6.75;2.90;;;26.20;48.10;;;;;;5092241;28;20047;-72
2023/05/28 05:47:14;;;;;;;2.10;1.80;;;26.00;46.70;;;;;;5091784;28;20020;-73
2023/05/28 05:49:41;;;;;;;7.35;2.97;;;26.10;46.60;;;;;;5092022;28;20479;-72
2023/05/28 05:52:07;;;;;;;3.65;1.90;;;26.00;46.00;;;;;;5075559;28;20040;-74
2023/05/28 05:54:36;;;;;;;3.63;1.90;;;26.00;46.50;;;;;;5091807;28;20039;-73
2023/05/28 05:57:02;;;;;;;5.90;2.92;;;25.90;44.80;;;;;;5100945;28;20535;-73
2023/05/28 05:59:29;;;;;;;4.15;2.92;;;25.90;45.80;;;;;;5090353;28;20052;-72
2023/05/28 06:01:55;;;;;;;5.20;2.92;;;25.80;46.00;;;;;;5092566;28;20044;-73
2023/05/28 06:04:23;;;;;;;18.33;4.35;;;25.90;46.20;;;;;;5093280;28;20116;-73
2023/05/28 06:07:10;;;;;;;8.48;2.80;;;25.90;46.30;;;;;;5093849;28;20043;-74
2023/05/28 06:09:55;;;;;;;5.47;3.17;;;25.90;46.50;;;;;;5110980;28;20055;-72
2023/05/28 06:12:25;;;;;;;4.57;2.80;;;25.90;45.90;;;;;;5088632;28;20044;-73
2023/05/28 06:14:51;;;;;;;5.07;3.05;;;25.90;47.10;;;;;;5072900;28;20047;-73
2023/05/28 06:17:18;;;;;;;3.65;3.05;;;25.90;48.80;;;;;;5073008;28;20420;-71
2023/05/28 06:19:44;;;;;;;5.43;2.85;;;25.90;48.00;;;;;;5089553;28;20035;-71
2023/05/28 06:22:10;;;;;;;5.65;2.83;;;25.90;46.60;;;;;;5092631;28;20055;-71
2023/05/28 06:24:38;;;;;;;7.22;3.25;;;25.80;45.00;;;;;;5075721;28;20036;-72
2023/05/28 06:27:05;;;;;;;5.75;1.95;;;25.80;45.60;;;;;;5092782;28;20081;-71
2023/05/28 06:29:31;;;;;;;6.45;3.42;;;25.90;45.80;;;;;;5092654;28;20028;-72
2023/05/28 06:31:57;;;;;;;2.85;2.17;;;26.00;45.70;;;;;;5092810;28;20581;-71
2023/05/28 06:34:23;;;;;;;7.75;2.92;;;25.90;45.00;;;;;;5090098;28;20545;-72
2023/05/28 06:36:49;;;;;;;5.00;2.75;;;26.00;45.20;;;;;;5073842;28;20039;-71
2023/05/28 06:39:17;;;;;;;5.07;3.25;;;26.00;45.20;;;;;;5090681;28;20093;-72
2023/05/28 06:41:46;;;;;;;7.85;3.85;;;25.80;44.60;;;;;;5090342;28;20434;-72
2023/05/28 06:44:20;;;;;;;5.28;2.55;;;25.90;44.00;;;;;;5090558;28;20464;-71
2023/05/28 06:46:54;;;;;;;5.43;3.20;;;26.00;43.80;;;;;;5090455;28;20119;-72
2023/05/28 06:49:20;;;;;;;4.85;3.47;;;25.80;42.60;;;;;;5073579;28;20464;-71
2023/05/28 06:51:46;;;;;;;4.05;2.70;;;25.90;42.90;;;;;;5090468;28;20065;-72
2023/05/28 06:54:12;;;;;;;4.63;2.80;;;25.80;43.10;;;;;;5090671;28;20060;-70
2023/05/28 06:56:39;;;;;;;6.20;3.30;;;25.80;43.40;;;;;;5070043;28;20035;-75
2023/05/28 06:59:23;;;;;;;5.93;3.83;;;25.70;43.70;;;;;;5071560;28;20033;-73
2023/05/28 07:02:28;;;;;;;5.97;2.90;;;25.70;43.40;;;;;;5068915;28;20381;-73
2023/05/28 07:05:18;;;;;;;6.45;3.50;;;25.70;43.20;;;;;;4973010;28;20089;-72
2023/05/28 07:07:44;;;;;;;3.70;2.60;;;25.70;42.90;;;;;;4988929;28;20040;-73
2023/05/28 07:10:10;;;;;;;8.23;3.03;;;25.70;43.80;;;;;;4973141;28;20046;-73
2023/05/28 07:12:38;;;;;;;8.93;3.08;;;25.80;43.80;;;;;;4989795;28;20501;-72
2023/05/28 07:15:06;;;;;;;7.63;3.72;;;25.70;43.60;;;;;;4973210;28;20067;-72
2023/05/28 07:17:32;;;;;;;7.25;3.47;;;25.80;43.60;;;;;;4972832;28;20056;-71
2023/05/28 07:19:59;;;;;;;5.80;2.80;;;25.80;44.50;;;;;;4952465;28;20426;-71
2023/05/28 07:22:45;;;;;;;10.80;3.45;;;25.70;44.00;;;;;;4969951;28;20059;-71
2023/05/28 07:25:11;;;;;;;4.35;3.28;;;25.80;43.90;;;;;;4966576;28;20046;-71
2023/05/28 07:27:38;;;;;;;5.05;3.22;;;25.70;43.90;;;;;;4968411;28;20043;-70
2023/05/28 07:30:04;;;;;;;3.72;3.20;;;25.90;43.80;;;;;;4953131;28;20050;-71
2023/05/28 07:32:30;;;;;;;5.32;3.10;;;25.90;43.80;;;;;;4957528;28;20046;-72
2023/05/28 07:34:57;;;;;;;7.40;3.60;;;25.90;43.90;;;;;;4957078;28;20042;-71
2023/05/28 07:37:23;;;;;;;7.97;3.65;;;25.90;44.10;;;;;;4973395;28;20046;-71
2023/05/28 07:39:49;;;;;;;6.85;4.22;;;25.80;44.10;;;;;;4989204;28;20614;-71
2023/05/28 07:42:16;;;;;;;7.07;3.28;;;26.00;44.60;;;;;;4985067;28;20049;-73
2023/05/28 07:44:43;;;;;;;6.13;3.65;;;25.90;43.90;;;;;;5008474;28;20041;-72
2023/05/28 07:47:09;;;;;;;7.63;3.30;;;26.00;44.40;;;;;;5008811;28;20045;-72
2023/05/28 07:50:11;;;;;;;5.22;2.97;;;26.00;44.70;;;;;;5011754;28;20489;-70
2023/05/28 07:53:03;;;;;;;5.40;3.42;;;25.90;45.80;;;;;;4976394;28;20100;-71
2023/05/28 07:55:31;;;;;;;4.10;3.50;;;25.80;45.40;;;;;;4983180;28;20553;-71
2023/05/28 07:57:58;;;;;;;5.47;3.30;;;25.70;45.20;;;;;;5008678;28;20611;-71
2023/05/28 08:00:27;;;;;;;8.38;4.03;;;25.70;46.40;;;;;;4992573;28;20193;-70
2023/05/28 08:02:53;;;;;;;8.02;3.38;;;25.70;46.40;;;;;;5008928;28;20490;-70
2023/05/28 08:05:24;;;;;;;8.07;3.63;;;25.80;46.00;;;;;;4985629;28;20047;-71
2023/05/28 08:07:51;;;;;;;4.00;3.17;;;25.60;45.70;;;;;;4973043;28;20031;-70
2023/05/28 08:10:18;;;;;;;8.40;3.97;;;25.60;46.00;;;;;;4972391;28;20117;-70
2023/05/28 08:12:44;;;;;;;5.05;3.15;;;25.70;46.40;;;;;;4972840;28;20125;-70
2023/05/28 08:15:11;;;;;;;6.47;3.60;;;25.70;46.70;;;;;;4978174;28;20049;-69
2023/05/28 08:17:37;;;;;;;4.13;3.05;;;25.60;46.30;;;;;;4991554;28;20049;-69
2023/05/28 08:20:09;;;;;;;5.90;3.28;;;25.80;46.30;;;;;;4991989;28;20073;-71
2023/05/28 08:22:44;;;;;;;5.35;3.67;;;25.80;46.10;;;;;;4991833;28;20053;-69
2023/05/28 08:25:10;;;;;;;5.57;2.70;;;26.00;46.60;;;;;;4993856;28;20069;-71
2023/05/28 08:27:37;;;;;;;8.68;4.00;;;25.90;46.00;;;;;;4992184;28;20422;-70
2023/05/28 08:30:03;;;;;;;7.78;3.40;;;25.80;45.80;;;;;;5020732;28;20048;-71
2023/05/28 08:32:33;;;;;;;6.72;3.10;;;25.80;45.90;;;;;;5029238;28;20121;-71
2023/05/28 08:34:59;;;;;;;5.53;2.97;;;25.90;45.90;;;;;;5029280;28;20072;-70
2023/05/28 08:37:25;;;;;;;5.28;2.95;;;25.90;45.90;;;;;;5030718;28;20033;-70
2023/05/28 08:40:18;;;;;;;14.05;4.07;;;25.90;45.70;;;;;;5068196;28;20048;-70
2023/05/28 08:42:44;;;;;;;6.93;3.75;;;26.00;46.10;;;;;;5067904;28;20810;-70
2023/05/28 08:45:12;;;;;;;7.03;2.95;;;25.90;45.80;;;;;;5052402;28;20510;-68
2023/05/28 08:47:40;;;;;;;6.45;3.38;;;25.90;45.70;;;;;;5054632;28;20040;-70
2023/05/28 08:50:16;;;;;;;7.05;3.35;;;26.00;46.70;;;;;;5069661;28;20028;-70
2023/05/28 08:53:02;;;;;;;4.53;2.38;;;25.90;46.20;;;;;;5062085;28;20036;-70
2023/05/28 08:55:30;;;;;;;2.95;1.85;;;26.00;47.20;;;;;;5071221;28;20365;-71
2023/05/28 08:58:07;;;;;;;5.50;2.58;;;26.00;48.40;;;;;;5054478;28;20057;-70
2023/05/28 09:00:34;;;;;;;5.95;4.32;;;26.00;49.90;;;;;;5071183;28;20136;-70
2023/05/28 09:03:23;;;;;;;4.88;3.20;;;26.10;49.70;;;;;;4992054;28;20475;-70
2023/05/28 09:05:50;;;;;;;9.07;3.80;;;26.30;48.00;;;;;;4975622;28;20145;-71
2023/05/28 09:08:18;;;;;;;8.95;4.00;;;26.30;48.10;;;;;;4990871;28;20114;-71
2023/05/28 09:10:44;;;;;;;9.02;4.13;;;26.50;47.90;;;;;;5011298;28;20482;-70
2023/05/28 09:13:11;;;;;;;6.70;3.83;;;26.30;48.70;;;;;;5011253;28;20129;-71
2023/05/28 09:15:37;;;;;;;9.93;3.47;;;26.40;47.40;;;;;;5009528;28;20232;-71
2023/05/28 09:18:07;;;;;;;11.93;3.92;;;26.40;48.30;;;;;;4976679;28;20054;-70
2023/05/28 09:20:34;;;;;;;8.82;3.72;;;26.40;48.40;;;;;;4959448;28;20058;-70
2023/05/28 09:23:06;;;;;;;4.93;3.45;;;26.50;46.90;;;;;;4982589;28;20058;-70
2023/05/28 09:26:09;;;;;;;4.20;3.40;;;26.20;46.70;;;;;;4978787;28;20137;-70
2023/05/28 09:28:43;;;;;;;8.23;3.95;;;26.30;46.40;;;;;;4992120;28;20103;-70
2023/05/28 09:31:09;;;;;;;5.00;3.42;;;26.30;46.50;;;;;;5010958;28;20041;-71
2023/05/28 09:33:42;;;;;;;5.32;3.58;;;26.30;48.80;;;;;;5011079;28;20140;-72
2023/05/28 09:36:09;;;;;;;2.08;1.52;;;26.50;48.80;;;;;;4994914;28;20064;-71
2023/05/28 09:38:42;;;;;;;5.40;2.63;;;26.40;46.90;;;;;;5011008;28;20211;-72
2023/05/28 09:41:19;;;;;;;4.38;2.10;;;26.40;45.60;;;;;;5045064;28;20049;-70
2023/05/28 09:43:46;;;;;;;7.55;3.17;;;26.50;47.40;;;;;;5050641;28;20110;-71
2023/05/28 09:46:12;;;;;;;7.05;3.70;;;26.50;44.50;;;;;;5050787;28;20044;-70
2023/05/28 09:48:38;;;;;;;5.75;3.35;;;26.30;45.00;;;;;;5050391;28;20045;-70
2023/05/28 09:51:07;;;;;;;7.70;3.05;;;26.20;45.20;;;;;;5050336;28;20060;-71
2023/05/28 09:53:38;;;;;;;6.90;4.25;;;26.10;45.40;;;;;;5050055;28;20453;-70
2023/05/28 09:56:05;;;;;;;7.65;4.18;;;26.20;45.70;;;;;;5049521;28;20037;-70
2023/05/28 09:58:34;;;;;;;5.40;3.03;;;26.20;46.00;;;;;;5049820;28;20051;-71
2023/05/28 10:01:13;;;;;;;11.40;3.78;;;26.10;46.40;;;;;;5033160;28;20494;-71
2023/05/28 10:03:44;;;;;;;5.88;3.45;;;26.10;46.50;;;;;;5049873;28;20056;-70
2023/05/28 10:06:14;;;;;;;5.97;3.65;;;26.10;46.50;;;;;;5049843;28;20048;-70
2023/05/28 10:08:42;;;;;;;6.13;3.60;;;26.10;46.30;;;;;;5049843;28;20094;-70
2023/05/28 10:11:13;;;;;;;7.25;3.33;;;26.00;46.30;;;;;;5049709;28;20037;-70
2023/05/28 10:13:40;;;;;;;6.38;3.50;;;26.00;46.10;;;;;;5033031;28;20041;-71
2023/05/28 10:16:07;;;;;;;4.78;3.45;;;26.10;46.50;;;;;;5065739;28;20029;-70
2023/05/28 10:18:35;;;;;;;4.47;2.92;;;26.00;48.40;;;;;;5072397;28;20051;-70
2023/05/28 10:21:02;;;;;;;11.75;2.00;;;26.00;48.80;;;;;;5071647;28;20036;-69
2023/05/28 10:23:29;;;;;;;4.53;2.90;;;26.20;49.20;;;;;;5078531;28;20036;-70
2023/05/28 10:25:55;;;;;;;1.15;1.15;;;26.30;51.20;;;;;;5092531;28;20031;-69
2023/05/28 10:28:22;;;;;;;5.30;4.35;;;26.20;49.00;;;;;;5091276;28;20458;-70
2023/05/28 10:31:06;;;;;;;5.70;4.25;;;26.10;48.70;;;;;;5074025;28;20418;-69
2023/05/28 10:33:39;;;;;;;8.38;4.25;;;26.10;48.40;;;;;;5071994;28;20033;-69
2023/05/28 10:36:10;;;;;;;11.73;4.35;;;26.30;48.50;;;;;;5072037;28;20385;-71
2023/05/28 10:38:45;;;;;;;4.65;3.50;;;26.10;48.30;;;;;;5070780;28;20431;-69
2023/05/28 10:41:21;;;;;;;12.73;3.95;;;26.20;48.80;;;;;;5076757;28;20456;-69
2023/05/28 10:43:48;;;;;;;5.03;3.97;;;26.40;48.40;;;;;;5079328;28;20036;-70
2023/05/28 10:46:19;;;;;;;6.57;4.20;;;26.20;47.80;;;;;;5085839;28;20718;-69
2023/05/28 10:49:04;;;;;;;6.85;4.00;;;26.20;49.80;;;;;;5091883;28;20393;-69
2023/05/28 10:52:02;;;;;;;5.63;3.90;;;26.30;51.30;;;;;;5071894;28;20040;-69
2023/05/28 10:54:37;;;;;;;5.85;3.45;;;26.40;48.90;;;;;;5071769;28;20051;-70
2023/05/28 10:57:10;;;;;;;4.45;3.60;;;26.40;48.60;;;;;;5082151;28;20032;-69
2023/05/28 10:59:50;;;;;;;5.20;3.25;;;26.40;48.20;;;;;;5091689;28;20044;-69
2023/05/28 11:02:27;;;;;;;4.85;3.35;;;26.30;48.30;;;;;;5091604;28;20059;-69
2023/05/28 11:04:55;;;;;;;5.07;3.08;;;26.30;47.90;;;;;;5089418;28;20400;-69
2023/05/28 11:07:27;;;;;;;6.43;3.42;;;26.50;48.30;;;;;;5091070;28;20028;-68
2023/05/28 11:09:56;;;;;;;5.75;3.10;;;26.30;48.80;;;;;;5091044;28;20407;-70
2023/05/28 11:12:27;;;;;;;7.13;2.90;;;26.40;49.00;;;;;;5071379;28;20047;-71
2023/05/28 11:14:53;;;;;;;6.45;3.05;;;26.30;48.80;;;;;;5088706;28;20048;-71
2023/05/28 11:17:20;;;;;;;6.93;3.63;;;26.40;48.30;;;;;;5091355;28;20032;-70
2023/05/28 11:19:48;;;;;;;6.53;3.20;;;26.40;49.10;;;;;;5091786;28;20044;-69
2023/05/28 11:22:15;;;;;;;5.38;3.05;;;26.70;48.80;;;;;;5091581;28;20036;-70
2023/05/28 11:24:58;;;;;;;6.15;3.78;;;26.40;48.10;;;;;;5073647;28;20041;-70
2023/05/28 11:27:28;;;;;;;8.88;3.20;;;26.50;48.00;;;;;;5071298;28;20036;-70
2023/05/28 11:29:56;;;;;;;5.65;3.75;;;26.50;49.00;;;;;;5071563;28;20028;-69
2023/05/28 11:32:23;;;;;;;4.03;3.35;;;26.50;48.90;;;;;;5090275;28;20156;-70
2023/05/28 11:34:51;;;;;;;8.90;3.42;;;26.40;49.10;;;;;;5091272;28;20089;-70
2023/05/28 11:37:26;;;;;;;3.40;3.03;;;26.40;49.20;;;;;;5091395;28;20047;-70
2023/05/28 11:39:54;;;;;;;5.05;3.38;;;26.50;49.00;;;;;;5091082;28;20372;-70
2023/05/28 11:42:21;;;;;;;4.30;3.35;;;26.50;49.20;;;;;;5089501;28;20039;-70
2023/05/28 11:44:48;;;;;;;2.30;1.65;;;26.50;48.80;;;;;;5090935;28;20078;-70
2023/05/28 11:47:15;;;;;;;4.28;2.47;;;26.50;49.40;;;;;;5091233;28;20066;-71
2023/05/28 11:49:41;;;;;;;6.95;2.80;;;26.50;49.40;;;;;;5090970;28;20024;-71
2023/05/28 11:52:23;;;;;;;4.13;2.20;;;26.50;49.50;;;;;;5089814;28;20093;-70
2023/05/28 11:54:58;;;;;;;5.63;3.05;;;26.60;49.70;;;;;;5090946;28;20024;-70
2023/05/28 11:57:33;;;;;;;3.75;2.30;;;26.50;49.40;;;;;;5091298;28;20031;-71
2023/05/28 12:00:11;;;;;;;6.70;3.03;;;26.60;49.50;;;;;;5090912;28;20055;-70
2023/05/28 12:02:51;;;;;;;3.97;2.80;;;26.50;49.70;;;;;;5091031;28;20028;-71
2023/05/28 12:05:18;;;;;;;5.13;2.97;;;26.50;49.70;;;;;;5090914;28;20115;-71
2023/05/28 12:07:53;;;;;;;3.95;2.75;;;26.50;49.80;;;;;;5090048;28;20085;-70
2023/05/28 12:10:26;;;;;;;4.43;3.03;;;26.50;50.20;;;;;;5090893;28;20094;-71
2023/05/28 12:12:56;;;;;;;3.42;2.83;;;26.50;50.80;;;;;;5090691;28;20044;-70
2023/05/28 12:15:24;;;;;;;5.55;2.90;;;26.60;50.50;;;;;;5090878;28;20413;-71
2023/05/28 12:17:58;;;;;;;3.00;2.60;;;26.60;50.50;;;;;;5090901;28;20062;-69
2023/05/28 12:20:24;;;;;;;4.05;2.80;;;26.60;50.40;;;;;;5093924;28;20067;-69
2023/05/28 12:23:23;;;;;;;6.15;3.30;;;26.60;50.30;;;;;;5093765;28;20531;-70
2023/05/28 12:25:50;;;;;;;4.32;2.83;;;26.50;50.40;;;;;;5051744;28;20037;-70
2023/05/28 12:28:18;;;;;;;4.50;2.72;;;26.60;50.30;;;;;;5051804;28;20436;-69
2023/05/28 12:30:46;;;;;;;6.68;3.38;;;26.60;50.30;;;;;;5052032;28;20037;-70
2023/05/28 12:33:12;;;;;;;6.68;3.15;;;26.70;50.00;;;;;;5051942;28;20534;-70
2023/05/28 12:35:38;;;;;;;5.18;3.40;;;26.50;50.20;;;;;;5051930;28;20059;-69
2023/05/28 12:38:04;;;;;;;6.65;3.13;;;26.60;50.20;;;;;;5051680;28;20123;-70
2023/05/28 12:40:30;;;;;;;5.22;3.28;;;26.60;50.30;;;;;;5051688;28;20041;-68
2023/05/28 12:43:00;;;;;;;6.68;3.05;;;26.60;50.00;;;;;;5035148;28;20044;-70
2023/05/28 12:45:27;;;;;;;8.25;3.95;;;26.70;50.10;;;;;;5051895;28;20033;-70
2023/05/28 12:47:53;;;;;;;5.28;3.00;;;26.40;50.20;;;;;;4992081;28;20037;-70
2023/05/28 12:50:22;;;;;;;5.10;3.30;;;26.60;50.00;;;;;;4992148;28;20121;-70
2023/05/28 12:52:49;;;;;;;4.35;2.97;;;26.50;50.00;;;;;;4992297;28;20050;-70
2023/05/28 12:55:16;;;;;;;5.28;3.00;;;26.50;50.00;;;;;;4992113;28;20770;-70